KPPO

La Porte Municipal Airport

La Porte, Indiana, USA
METAR KPPO 180155Z AUTO 02003KT 10SM SCT065 22/21 A3000 RMK AO2 T02180206
Observed Flight Rules
Aug-18 @ 01:55 UTC (33 minutes ago) Visual Flight Rules
Wind Visibility Clouds
20° at 3 knots 10 miles
  • Scattered at 6,500' AGL
Temperatures Readings
Current 22°C / 72°F
Dewpoint 21°C / 70°F
Humidity 94%
Altimeter 30" Hg
Pressure 1016 hPa
Elevation 248
METAR KPPO 180155Z AUTO 02003KT 10SM SCT065 22/21 A3000 RMK AO2 T02180206
Observed Flight Rules
Aug-18 @ 01:55 UTC
(33 minutes ago)
VFR
Wind Visibility
20° at 3 knots 10 miles
Clouds
  • Scattered at 6,500' AGL
Temperature Dewpoint
22°C / 72°F 21°C / 70°F
Humidity Altimeter Pressure
94% 30" Hg 1016 hPa